Latest Weather Observations for Fitzroy Crossing

IDW60801

Issued at 8:34 am WST Wednesday 26 July 2017 (issued every 30 minutes, with the page automatically refreshed every 10 minutes)

About weather observations | Map of weather stations | Latest weather observations for WA | Other Formats
Station Details ID: 003093 Name: FITZROY CROSSING AERO Lat: -18.18 Lon: 125.56 Height: 114.5 m
Data from the previous 72 hours. | See also: Recent months at Fitzroy Crossing
Date/Time
WST
Temp
°C
App
Temp
°C
Dew
Point
°C
Rel
Hum
%
Delta-T
°C
Wind Press
QNH
hPa
Press
MSL
hPa
Rain since
9am
mm
Dir  Spd
km/h
Gust
km/h
Spd
kts
Gust
kts
26/08:30am 22.7 18.7 0.5 23 10.2 E 11 15 6 8 1017.8 1017.4 0.0
26/08:00am 20.9 17.2 0.2 25 9.3 E 9 13 5 7 1017.6 1017.2 0.0
26/07:30am 18.6 16.7 0.7 30 8.0 CALM 0 2 0 1 1017.5 1017.1 0.0
26/07:00am 15.3 11.5 -0.4 34 6.6 SSW 9 11 5 6 1017.3 1016.9 0.0
26/06:30am 12.7 10.8 0.5 43 5.1 CALM 0 0 0 0 1017.1 1016.7 0.0
26/06:00am 11.1 9.3 1.1 50 4.2 CALM 0 0 0 0 1016.8 1016.4 0.0
26/05:30am 11.5 9.7 1.2 49 4.3 CALM 0 0 0 0 1016.2 1015.8 0.0
26/05:00am 11.9 10.0 0.4 45 4.8 CALM 0 0 0 0 1016.1 1015.7 0.0
26/04:30am 12.7 10.8 0.5 43 5.1 CALM 0 0 0 0 1015.9 1015.5 0.0
26/04:00am 13.8 11.8 -0.3 38 5.9 CALM 0 0 0 0 1015.7 1015.3 0.0
26/03:30am 13.8 11.8 -0.3 38 5.9 CALM 0 0 0 0 1015.7 1015.3 0.0
26/03:00am 15.0 12.6 -0.3 35 6.4 SSE 2 6 1 3 1015.6 1015.2 0.0
26/02:30am 15.4 10.9 -0.4 34 6.7 SSW 13 15 7 8 1015.8 1015.4 0.0
26/02:00am 15.4 12.3 0.0 35 6.6 SW 6 9 3 5 1015.5 1015.1 0.0
26/01:30am 15.9 12.5 -0.3 33 6.9 S 7 7 4 4 1015.5 1015.1 0.0
26/01:00am 15.9 13.9 -0.3 33 6.9 CALM 0 0 0 0 1015.6 1015.2 0.0
26/12:30am 16.7 13.7 -1.9 28 7.7 ESE 4 9 2 5 1015.6 1015.2 0.0
26/12:00am 19.8 15.5 -1.9 23 9.3 SE 11 13 6 7 1015.6 1015.2 0.0
 
Date/Time
WST
Temp
°C
App
Temp
°C
Dew
Point
°C
Rel
Hum
%
Delta-T
°C
Wind Press
QNH
hPa
Press
MSL
hPa
Rain since
9am
mm
Dir  Spd
km/h
Gust
km/h
Spd
kts
Gust
kts
25/11:30pm 20.2 16.3 -1.6 23 9.4 SE 9 11 5 6 1015.7 1015.3 0.0
25/11:00pm 21.0 16.7 -1.5 22 9.8 SE 11 11 6 6 1015.7 1015.3 0.0
25/10:30pm 21.2 17.3 -1.3 22 9.8 ESE 9 11 5 6 1015.9 1015.5 0.0
25/10:00pm 20.8 17.0 -0.5 24 9.4 SE 9 11 5 6 1015.8 1015.4 0.0
25/09:30pm 21.4 17.6 -0.6 23 9.8 SE 9 11 5 6 1016.0 1015.6 0.0
25/09:00pm 22.2 18.0 -1.1 21 10.3 SE 11 13 6 7 1016.0 1015.6 0.0
25/08:30pm 22.9 18.7 -1.2 20 10.7 SE 11 13 6 7 1015.8 1015.4 0.0
25/08:00pm 23.4 19.2 -0.8 20 10.9 SE 11 13 6 7 1015.8 1015.4 0.0
25/07:30pm 23.4 19.7 -0.1 21 10.7 SE 9 11 5 6 1015.6 1015.2 0.0
25/07:00pm 24.5 20.2 -1.3 18 11.6 SE 11 11 6 6 1015.5 1015.1 0.0
25/06:30pm 25.2 21.0 -0.8 18 11.9 SE 11 11 6 6 1015.3 1014.9 0.0
25/06:00pm 25.7 21.9 -0.4 18 12.0 SE 9 11 5 6 1014.9 1014.5 0.0
25/05:30pm 26.9 22.9 -1.9 15 13.1 SE 9 11 5 6 1014.5 1014.1 0.0
25/05:00pm 28.9 24.8 -3.3 12 14.5 ESE 9 13 5 7 1014.4 1014.0 0.0
25/04:30pm 30.3 25.3 -4.7 10 15.5 ESE 13 17 7 9 1014.3 1013.9 0.0
25/04:00pm 31.3 26.3 -3.9 10 15.9 E 13 20 7 11 1014.2 1013.8 0.0
25/03:30pm 31.8 26.0 -4.9 9 16.4 E 17 22 9 12 1014.1 1013.7 0.0
25/03:00pm 31.7 25.9 -5.0 9 16.4 E 17 24 9 13 1014.2 1013.8 0.0
25/02:30pm 32.0 26.9 -4.8 9 16.5 ESE 13 20 7 11 1014.3 1013.9 0.0
25/02:00pm 31.8 25.2 -6.5 8 16.7 E 20 30 11 16 1014.6 1014.2 0.0
25/01:30pm 31.5 24.7 -5.2 9 16.3 E 22 32 12 17 1014.8 1014.4 0.0
25/01:00pm 31.5 25.3 -5.2 9 16.3 E 19 30 10 16 1015.1 1014.7 0.0
25/12:30pm 31.2 24.0 -5.4 9 16.1 E 24 33 13 18 1015.4 1015.0 0.0
25/12:00pm 30.9 23.7 -5.6 9 16.0 E 24 37 13 20 1015.9 1015.5 0.0
25/11:30am 30.3 21.9 -6.1 9 15.7 ESE 30 39 16 21 1016.4 1016.0 0.0
25/11:00am 30.7 24.0 -4.4 10 15.7 ESE 22 37 12 20 1017.0 1016.6 0.0
25/10:30am 29.5 22.4 -4.0 11 14.9 ESE 24 33 13 18 1017.4 1017.0 0.0
25/10:00am 28.5 21.9 -3.6 12 14.3 E 22 33 12 18 1017.9 1017.5 0.0
25/09:30am 27.3 20.7 -3.5 13 13.6 ESE 22 30 12 16 1018.3 1017.9 0.0
25/09:00am 25.6 20.4 0.3 19 11.8 E 17 22 9 12 1018.6 1018.2 0.0
25/08:30am 22.2 18.6 2.8 28 9.3 E 11 15 6 8 1018.5 1018.1 0.0
25/08:00am 19.0 16.0 2.0 32 7.8 E 7 11 4 6 1018.6 1018.2 0.0
25/07:30am 16.2 13.0 0.7 35 6.8 ESE 7 11 4 6 1018.3 1017.9 0.0
25/07:00am 13.7 12.0 1.7 44 5.2 CALM 0 0 0 0 1018.1 1017.7 0.0
25/06:30am 11.0 9.3 1.8 53 3.9 CALM 0 0 0 0 1017.9 1017.5 0.0
25/06:00am 10.5 8.7 1.3 53 3.8 CALM 0 0 0 0 1017.6 1017.2 0.0
25/05:30am 10.5 8.7 1.1 52 3.9 CALM 0 0 0 0 1017.3 1016.9 0.0
25/05:00am 13.1 9.7 1.8 46 4.9 ESE 9 11 5 6 1017.1 1016.7 0.0
25/04:30am 10.5 8.8 1.6 54 3.8 CALM 0 0 0 0 1016.9 1016.5 0.0
25/04:00am 12.0 10.3 1.6 49 4.4 CALM 0 0 0 0 1016.7 1016.3 0.0
25/03:30am 13.4 10.5 1.7 45 5.1 SE 6 7 3 4 1016.5 1016.1 0.0
25/03:00am 13.8 11.0 1.8 44 5.2 SE 6 7 3 4 1016.4 1016.0 0.0
25/02:30am 14.8 11.8 0.6 38 6.1 SE 6 7 3 4 1016.3 1015.9 0.0
25/02:00am 16.0 12.0 0.2 34 6.8 SE 11 13 6 7 1016.3 1015.9 0.0
25/01:30am 13.2 10.2 1.8 46 5.0 SE 7 9 4 5 1016.4 1016.0 0.0
25/01:00am 13.6 11.4 1.3 43 5.3 E 2 7 1 4 1016.5 1016.1 0.0
25/12:30am 16.0 12.8 1.0 36 6.6 E 7 9 4 5 1016.4 1016.0 0.0
25/12:00am 15.8 13.1 2.6 41 6.0 ESE 6 11 3 6 1016.5 1016.1 0.0
 
Date/Time
WST
Temp
°C
App
Temp
°C
Dew
Point
°C
Rel
Hum
%
Delta-T
°C
Wind Press
QNH
hPa
Press
MSL
hPa
Rain since
9am
mm
Dir  Spd
km/h
Gust
km/h
Spd
kts
Gust
kts
24/11:30pm 14.3 12.7 2.5 45 5.3 CALM 0 0 0 0 1016.5 1016.1 0.0
24/11:00pm 14.0 12.4 2.3 45 5.2 CALM 0 0 0 0 1016.6 1016.2 0.0
24/10:30pm 15.6 12.9 2.7 42 5.8 E 6 7 3 4 1016.6 1016.2 0.0
24/10:00pm 17.7 14.8 2.5 36 7.0 ESE 7 9 4 5 1016.7 1016.3 0.0
24/09:30pm 19.0 15.8 2.8 34 7.5 ESE 9 9 5 5 1016.7 1016.3 0.0
24/09:00pm 18.3 16.0 3.0 36 7.1 SE 4 9 2 5 1016.6 1016.2 0.0
24/08:30pm 20.7 17.8 2.5 30 8.5 ESE 7 11 4 6 1016.6 1016.2 0.0
24/08:00pm 22.1 18.3 1.7 26 9.5 SE 11 13 6 7 1016.4 1016.0 0.0
24/07:30pm 22.2 19.0 3.3 29 9.1 SE 9 11 5 6 1016.2 1015.8 0.0
24/07:00pm 23.2 19.9 2.7 26 9.8 SE 9 11 5 6 1015.8 1015.4 0.0
24/06:30pm 24.0 20.8 3.3 26 10.1 SE 9 11 5 6 1015.4 1015.0 0.0
24/06:00pm 25.0 21.8 3.0 24 10.7 ESE 9 11 5 6 1015.1 1014.7 0.0
24/05:30pm 26.7 23.7 1.9 20 12.0 E 7 9 4 5 1014.7 1014.3 0.0
24/05:00pm 29.2 26.0 0.8 16 13.7 SE 7 9 4 5 1014.5 1014.1 0.0
24/04:30pm 30.7 26.0 -1.9 12 15.2 ESE 13 22 7 12 1014.2 1013.8 0.0
24/04:00pm 31.5 26.3 -2.5 11 15.8 ESE 15 24 8 13 1014.0 1013.6 0.0
24/03:30pm 31.9 27.1 -2.2 11 16.0 ESE 13 20 7 11 1013.9 1013.5 0.0
24/03:00pm 32.4 27.3 -1.8 11 16.2 E 15 22 8 12 1013.9 1013.5 0.0
24/02:30pm 32.2 27.1 -2.0 11 16.1 ESE 15 20 8 11 1014.1 1013.7 0.0
24/02:00pm 32.0 25.9 -2.1 11 16.0 ESE 20 30 11 16 1014.4 1014.0 0.0
24/01:30pm 32.3 26.7 -3.2 10 16.4 E 17 26 9 14 1014.6 1014.2 0.0
24/01:00pm 32.2 26.3 -2.0 11 16.1 E 19 28 10 15 1015.0 1014.6 0.0
24/12:30pm 32.0 26.5 -2.1 11 16.0 E 17 24 9 13 1015.4 1015.0 0.0
24/12:00pm 31.5 25.4 -2.5 11 15.8 E 20 33 11 18 1016.0 1015.6 0.0
24/11:30am 31.2 24.8 -1.5 12 15.4 ENE 22 33 12 18 1016.5 1016.1 0.0
24/11:00am 31.2 25.4 -1.5 12 15.4 ENE 19 30 10 16 1017.1 1016.7 0.0
24/10:30am 30.9 25.6 -0.7 13 15.1 E 17 28 9 15 1017.6 1017.2 0.0
24/10:00am 28.4 23.0 1.0 17 13.2 E 19 30 10 16 1018.1 1017.7 0.0
24/09:30am 27.3 21.5 0.1 17 12.8 E 20 30 11 16 1018.3 1017.9 0.0
24/09:00am 25.5 20.4 0.9 20 11.6 E 17 20 9 11 1018.5 1018.1 0.0
24/08:30am 22.9 18.5 2.9 27 9.6 ENE 15 19 8 10 1018.5 1018.1 0.0
24/08:00am 21.5 18.2 2.7 29 8.9 ENE 9 13 5 7 1018.3 1017.9 0.0
24/07:30am 18.5 15.6 2.4 34 7.4 ENE 7 9 4 5 1017.9 1017.5 0.0
24/07:00am 15.9 14.1 3.7 44 5.6 NNE 2 6 1 3 1017.5 1017.1 0.0
24/06:30am 12.7 11.2 3.1 52 4.3 CALM 0 0 0 0 1017.3 1016.9 0.0
24/06:00am 13.3 10.6 2.5 48 4.8 SE 6 7 3 4 1017.0 1016.6 0.0
24/05:30am 13.7 10.9 2.9 48 4.8 E 7 9 4 5 1016.7 1016.3 0.0
24/05:00am 13.9 11.1 3.4 49 4.7 E 7 9 4 5 1016.4 1016.0 0.0
24/04:30am 14.0 11.3 2.9 47 5.0 E 6 7 3 4 1016.3 1015.9 0.0
24/04:00am 14.9 11.8 3.4 46 5.2 E 9 9 5 5 1016.2 1015.8 0.0
24/03:30am 14.5 11.8 3.6 48 5.0 E 7 7 4 4 1016.0 1015.6 0.0
24/03:00am 15.3 12.2 3.5 45 5.4 ENE 9 11 5 6 1015.7 1015.3 0.0
24/02:30am 14.7 12.0 3.5 47 5.1 E 7 9 4 5 1015.8 1015.4 0.0
24/02:00am 13.1 10.6 3.7 53 4.2 NE 6 6 3 3 1015.9 1015.5 0.0
24/01:30am 13.3 11.9 3.4 51 4.5 CALM 0 0 0 0 1016.0 1015.6 0.0
24/01:00am 13.6 12.1 2.8 48 4.8 CALM 0 0 0 0 1016.0 1015.6 0.0
24/12:30am 16.0 14.6 3.8 44 5.7 CALM 0 0 0 0 1016.1 1015.7 0.0
24/12:00am 16.5 15.2 3.9 43 5.9 CALM 0 0 0 0 1016.2 1015.8 0.0
 
Date/Time
WST
Temp
°C
App
Temp
°C
Dew
Point
°C
Rel
Hum
%
Delta-T
°C
Wind Press
QNH
hPa
Press
MSL
hPa
Rain since
9am
mm
Dir  Spd
km/h
Gust
km/h
Spd
kts
Gust
kts
23/11:30pm 16.7 15.3 3.4 41 6.2 CALM 0 4 0 2 1016.3 1015.9 0.0
23/11:00pm 18.3 15.3 2.2 34 7.4 SE 7 9 4 5 1016.1 1015.7 0.0
23/10:30pm 18.9 15.6 2.3 33 7.7 SE 9 11 5 6 1016.0 1015.6 0.0
23/10:00pm 19.2 15.8 2.1 32 7.9 SE 9 11 5 6 1016.0 1015.6 0.0
23/09:30pm 19.1 16.3 2.0 32 7.8 ESE 6 7 3 4 1015.8 1015.4 0.0
23/09:00pm 20.5 16.8 2.3 30 8.5 SE 11 11 6 6 1015.9 1015.5 0.0
23/08:30pm 21.2 17.5 2.5 29 8.8 ESE 11 13 6 7 1015.7 1015.3 0.0
23/08:00pm 21.7 18.1 2.9 29 9.0 ESE 11 11 6 6 1015.5 1015.1 0.0
23/07:30pm 22.5 19.4 3.6 29 9.2 SE 9 11 5 6 1015.4 1015.0 0.0
23/07:00pm 23.6 20.1 3.5 27 9.8 SE 11 11 6 6 1015.1 1014.7 0.0
23/06:30pm 24.3 21.4 4.6 28 9.9 SE 9 11 5 6 1014.5 1014.1 0.0
23/06:00pm 25.5 22.5 4.0 25 10.7 SE 9 11 5 6 1014.1 1013.7 0.0
23/05:30pm 27.1 24.4 3.6 22 11.8 ESE 7 9 4 5 1013.7 1013.4 0.0
23/05:00pm 29.7 26.7 2.1 17 13.7 ESE 7 9 4 5 1013.4 1013.0 0.0
23/04:30pm 31.3 27.5 -0.4 13 15.2 ESE 9 13 5 7 1013.2 1012.8 0.0
23/04:00pm 32.2 27.6 -0.8 12 15.9 E 13 17 7 9 1013.1 1012.7 0.0
23/03:30pm 32.4 27.7 -1.8 11 16.2 E 13 19 7 10 1013.0 1012.6 0.0
23/03:00pm 32.6 28.3 -1.7 11 16.3 ENE 11 19 6 10 1013.1 1012.7 0.0
23/02:30pm 33.0 27.4 -2.6 10 16.7 ENE 17 24 9 13 1013.4 1013.0 0.0
23/02:00pm 32.7 26.7 -2.9 10 16.6 E 19 24 10 13 1013.6 1013.3 0.0
23/01:30pm 32.8 26.8 -1.5 11 16.4 ESE 20 26 11 14 1014.2 1013.8 0.0
23/01:00pm 32.6 26.8 -1.7 11 16.3 E 19 24 10 13 1014.6 1014.2 0.0
23/12:30pm 32.3 26.4 -0.7 12 15.9 ENE 20 28 11 15 1015.0 1014.6 0.0
23/12:00pm 31.7 25.4 -1.2 12 15.6 E 22 35 12 19 1015.7 1015.3 0.0
23/11:30am 32.0 26.1 -0.9 12 15.8 ENE 20 30 11 16 1016.3 1015.9 0.0
23/11:00am 31.2 25.3 -0.5 13 15.2 E 20 28 11 15 1016.9 1016.5 0.0
23/10:30am 30.2 24.4 -0.2 14 14.6 E 20 30 11 16 1017.3 1016.9 0.0
23/10:00am 29.3 22.8 0.0 15 14.0 E 24 35 13 19 1017.7 1017.3 0.0
23/09:30am 28.4 21.4 -0.7 15 13.6 ENE 26 39 14 21 1017.9 1017.5 0.0
23/09:00am 26.4 20.9 0.9 19 12.1 ENE 19 28 10 15 1018.0 1017.6 0.0

Other Formats:

Comma delimited format used in spreadsheet applications
http://www.bom.gov.au/fwo/IDW60801/IDW60801.94206.axf

JavaScript Object Notation format (JSON) in row-major order
http://www.bom.gov.au/fwo/IDW60801/IDW60801.94206.json